sensor_id;sensor_type;location;lat;lon;timestamp;pressure;altitude;pressure_sealevel;temperature;humidity
64211;BME280;50528;48.514;14.394;2023-04-21T00:00:25;93568.66;;;7.10;75.87
64211;BME280;50528;48.514;14.394;2023-04-21T00:01:19;93564.59;;;7.05;75.85
64211;BME280;50528;48.514;14.394;2023-04-21T00:01:52;93562.61;;;7.03;75.90
64211;BME280;50528;48.514;14.394;2023-04-21T00:02:27;93566.23;;;7.01;75.85
64211;BME280;50528;48.514;14.394;2023-04-21T00:03:01;93561.65;;;6.99;75.84
64211;BME280;50528;48.514;14.394;2023-04-21T00:03:36;93560.88;;;6.97;75.87
64211;BME280;50528;48.514;14.394;2023-04-21T00:04:14;93560.69;;;6.96;75.77
64211;BME280;50528;48.514;14.394;2023-04-21T00:04:47;93564.17;;;6.95;75.88
64211;BME280;50528;48.514;14.394;2023-04-21T00:05:23;93564.07;;;6.95;75.87
64211;BME280;50528;48.514;14.394;2023-04-21T00:05:57;93561.64;;;6.93;75.72
64211;BME280;50528;48.514;14.394;2023-04-21T00:06:30;93563.70;;;6.89;75.82
64211;BME280;50528;48.514;14.394;2023-04-21T00:07:04;93562.04;;;6.87;75.88
64211;BME280;50528;48.514;14.394;2023-04-21T00:07:39;93563.64;;;6.84;75.95
64211;BME280;50528;48.514;14.394;2023-04-21T00:08:14;93564.55;;;6.82;75.95
64211;BME280;50528;48.514;14.394;2023-04-21T00:08:48;93551.84;;;6.72;76.07
64211;BME280;50528;48.514;14.394;2023-04-21T00:09:22;93566.80;;;6.79;76.33
64211;BME280;50528;48.514;14.394;2023-04-21T00:09:56;93562.04;;;6.77;76.68
64211;BME280;50528;48.514;14.394;2023-04-21T00:10:33;93561.05;;;6.75;76.63
64211;BME280;50528;48.514;14.394;2023-04-21T00:11:09;93564.28;;;6.72;76.79
64211;BME280;50528;48.514;14.394;2023-04-21T00:11:47;93565.04;;;6.69;76.79
64211;BME280;50528;48.514;14.394;2023-04-21T00:12:20;93562.55;;;6.69;77.00
64211;BME280;50528;48.514;14.394;2023-04-21T00:12:54;93558.91;;;6.67;77.08
64211;BME280;50528;48.514;14.394;2023-04-21T00:13:28;93557.98;;;6.66;77.14
64211;BME280;50528;48.514;14.394;2023-04-21T00:14:01;93564.62;;;6.66;77.26
64211;BME280;50528;48.514;14.394;2023-04-21T00:14:35;93561.66;;;6.64;77.23
64211;BME280;50528;48.514;14.394;2023-04-21T00:15:09;93558.02;;;6.68;77.15
64211;BME280;50528;48.514;14.394;2023-04-21T00:15:42;93561.40;;;6.61;77.10
64211;BME280;50528;48.514;14.394;2023-04-21T00:16:16;93562.64;;;6.59;77.11
64211;BME280;50528;48.514;14.394;2023-04-21T00:16:49;93563.56;;;6.57;77.12
64211;BME280;50528;48.514;14.394;2023-04-21T00:17:25;93563.21;;;6.56;77.14
64211;BME280;50528;48.514;14.394;2023-04-21T00:17:58;93565.12;;;6.55;77.13
64211;BME280;50528;48.514;14.394;2023-04-21T00:18:32;93552.41;;;6.47;77.09
64211;BME280;50528;48.514;14.394;2023-04-21T00:19:05;93561.17;;;6.56;77.09
64211;BME280;50528;48.514;14.394;2023-04-21T00:19:39;93563.96;;;6.52;76.98
64211;BME280;50528;48.514;14.394;2023-04-21T00:20:13;93565.70;;;6.48;77.03
64211;BME280;50528;48.514;14.394;2023-04-21T00:20:47;93564.75;;;6.47;77.12
64211;BME280;50528;48.514;14.394;2023-04-21T00:21:21;93564.88;;;6.46;77.09
64211;BME280;50528;48.514;14.394;2023-04-21T00:21:54;93561.83;;;6.55;76.99
64211;BME280;50528;48.514;14.394;2023-04-21T00:22:32;93566.08;;;6.49;76.96
64211;BME280;50528;48.514;14.394;2023-04-21T00:23:05;93565.36;;;6.42;77.05
64211;BME280;50528;48.514;14.394;2023-04-21T00:23:40;93561.88;;;6.38;77.22
64211;BME280;50528;48.514;14.394;2023-04-21T00:24:13;93562.48;;;6.38;77.41
64211;BME280;50528;48.514;14.394;2023-04-21T00:24:47;93564.11;;;6.42;77.55
64211;BME280;50528;48.514;14.394;2023-04-21T00:25:21;93562.63;;;6.39;77.51
64211;BME280;50528;48.514;14.394;2023-04-21T00:25:54;93564.23;;;6.37;77.55
64211;BME280;50528;48.514;14.394;2023-04-21T00:26:27;93561.83;;;6.33;77.68
64211;BME280;50528;48.514;14.394;2023-04-21T00:27:02;93561.30;;;6.35;77.72
64211;BME280;50528;48.514;14.394;2023-04-21T00:27:35;93564.94;;;6.38;77.92
64211;BME280;50528;48.514;14.394;2023-04-21T00:28:09;93561.11;;;6.37;78.06
64211;BME280;50528;48.514;14.394;2023-04-21T00:28:42;93559.59;;;6.36;78.10
64211;BME280;50528;48.514;14.394;2023-04-21T00:29:16;93559.48;;;6.37;78.20
64211;BME280;50528;48.514;14.394;2023-04-21T00:29:50;93562.21;;;6.37;78.35
64211;BME280;50528;48.514;14.394;2023-04-21T00:30:27;93559.02;;;6.37;78.35
64211;BME280;50528;48.514;14.394;2023-04-21T00:31:00;93560.90;;;6.37;78.33
64211;BME280;50528;48.514;14.394;2023-04-21T00:31:34;93558.95;;;6.36;78.48
64211;BME280;50528;48.514;14.394;2023-04-21T00:32:10;93560.10;;;6.35;78.64
64211;BME280;50528;48.514;14.394;2023-04-21T00:32:43;93562.95;;;6.35;78.50
64211;BME280;50528;48.514;14.394;2023-04-21T00:33:17;93559.94;;;6.35;78.51
64211;BME280;50528;48.514;14.394;2023-04-21T00:33:50;93560.79;;;6.37;78.54
64211;BME280;50528;48.514;14.394;2023-04-21T00:34:26;93560.80;;;6.37;78.54
64211;BME280;50528;48.514;14.394;2023-04-21T00:34:59;93559.96;;;6.37;78.50
64211;BME280;50528;48.514;14.394;2023-04-21T00:35:33;93560.41;;;6.36;78.49
64211;BME280;50528;48.514;14.394;2023-04-21T00:36:06;93559.41;;;6.35;78.58
64211;BME280;50528;48.514;14.394;2023-04-21T00:36:40;93558.05;;;6.35;78.70
64211;BME280;50528;48.514;14.394;2023-04-21T00:37:13;93561.41;;;6.36;78.61
64211;BME280;50528;48.514;14.394;2023-04-21T00:37:47;93556.83;;;6.36;78.63
64211;BME280;50528;48.514;14.394;2023-04-21T00:38:22;93557.15;;;6.34;78.49
64211;BME280;50528;48.514;14.394;2023-04-21T00:38:55;93559.19;;;6.35;78.58
64211;BME280;50528;48.514;14.394;2023-04-21T00:39:29;93561.04;;;6.34;78.54
64211;BME280;50528;48.514;14.394;2023-04-21T00:40:03;93557.30;;;6.34;78.57
64211;BME280;50528;48.514;14.394;2023-04-21T00:40:37;93555.21;;;6.34;78.47
64211;BME280;50528;48.514;14.394;2023-04-21T00:41:10;93559.02;;;6.34;78.43
64211;BME280;50528;48.514;14.394;2023-04-21T00:41:44;93549.95;;;6.26;78.35
64211;BME280;50528;48.514;14.394;2023-04-21T00:42:17;93560.66;;;6.31;78.30
64211;BME280;50528;48.514;14.394;2023-04-21T00:42:51;93560.12;;;6.29;78.34
64211;BME280;50528;48.514;14.394;2023-04-21T00:43:24;93559.36;;;6.29;78.33
64211;BME280;50528;48.514;14.394;2023-04-21T00:44:06;93560.18;;;6.28;78.25
64211;BME280;50528;48.514;14.394;2023-04-21T00:44:42;93559.48;;;6.25;78.28
64211;BME280;50528;48.514;14.394;2023-04-21T00:45:16;93561.16;;;6.23;78.17
64211;BME280;50528;48.514;14.394;2023-04-21T00:45:49;93562.29;;;6.22;78.17
64211;BME280;50528;48.514;14.394;2023-04-21T00:46:22;93563.79;;;6.21;78.14
64211;BME280;50528;48.514;14.394;2023-04-21T00:46:56;93560.73;;;6.21;78.12
64211;BME280;50528;48.514;14.394;2023-04-21T00:47:29;93557.02;;;6.20;78.11
64211;BME280;50528;48.514;14.394;2023-04-21T00:48:03;93558.79;;;6.20;78.14
64211;BME280;50528;48.514;14.394;2023-04-21T00:48:37;93558.79;;;6.20;78.10
64211;BME280;50528;48.514;14.394;2023-04-21T00:49:11;93558.40;;;6.19;78.16
64211;BME280;50528;48.514;14.394;2023-04-21T00:49:47;93555.52;;;6.18;78.07
64211;BME280;50528;48.514;14.394;2023-04-21T00:50:20;93556.50;;;6.17;77.99
64211;BME280;50528;48.514;14.394;2023-04-21T00:50:55;93557.16;;;6.16;78.00
64211;BME280;50528;48.514;14.394;2023-04-21T00:51:29;93556.58;;;6.16;78.00
64211;BME280;50528;48.514;14.394;2023-04-21T00:52:05;93559.23;;;6.15;77.94
64211;BME280;50528;48.514;14.394;2023-04-21T00:52:40;93555.98;;;6.15;77.94
64211;BME280;50528;48.514;14.394;2023-04-21T00:53:16;93557.27;;;6.14;77.98
64211;BME280;50528;48.514;14.394;2023-04-21T00:53:51;93558.16;;;6.14;77.88
64211;BME280;50528;48.514;14.394;2023-04-21T00:54:25;93557.14;;;6.13;77.85
64211;BME280;50528;48.514;14.394;2023-04-21T00:54:59;93556.58;;;6.11;77.85
64211;BME280;50528;48.514;14.394;2023-04-21T00:55:33;93556.39;;;6.10;77.90
64211;BME280;50528;48.514;14.394;2023-04-21T00:56:08;93555.42;;;6.09;77.80
64211;BME280;50528;48.514;14.394;2023-04-21T00:56:41;93553.48;;;6.08;77.86
64211;BME280;50528;48.514;14.394;2023-04-21T00:57:15;93555.34;;;6.07;77.86
64211;BME280;50528;48.514;14.394;2023-04-21T00:57:50;93554.48;;;6.07;77.77
64211;BME280;50528;48.514;14.394;2023-04-21T00:58:24;93552.29;;;6.07;77.79
64211;BME280;50528;48.514;14.394;2023-04-21T00:58:58;93552.18;;;6.07;77.82
64211;BME280;50528;48.514;14.394;2023-04-21T00:59:32;93553.77;;;6.05;77.73
64211;BME280;50528;48.514;14.394;2023-04-21T01:00:08;93551.87;;;6.04;77.78
64211;BME280;50528;48.514;14.394;2023-04-21T01:00:42;93550.27;;;6.03;77.74
64211;BME280;50528;48.514;14.394;2023-04-21T01:01:16;93553.89;;;6.03;77.90
64211;BME280;50528;48.514;14.394;2023-04-21T01:01:50;93553.48;;;6.02;77.85
64211;BME280;50528;48.514;14.394;2023-04-21T01:02:26;93555.23;;;6.01;77.87
64211;BME280;50528;48.514;14.394;2023-04-21T01:03:00;93555.23;;;6.00;77.90
64211;BME280;50528;48.514;14.394;2023-04-21T01:03:34;93554.52;;;5.99;77.91
64211;BME280;50528;48.514;14.394;2023-04-21T01:04:08;93555.73;;;5.98;78.04
64211;BME280;50528;48.514;14.394;2023-04-21T01:04:43;93552.41;;;5.98;78.12
64211;BME280;50528;48.514;14.394;2023-04-21T01:05:18;93553.21;;;5.97;78.07
64211;BME280;50528;48.514;14.394;2023-04-21T01:05:55;93554.71;;;5.97;78.08
64211;BME280;50528;48.514;14.394;2023-04-21T01:06:32;93553.71;;;5.96;78.23
64211;BME280;50528;48.514;14.394;2023-04-21T01:07:08;93554.67;;;5.94;78.14
64211;BME280;50528;48.514;14.394;2023-04-21T01:07:42;93552.80;;;5.95;78.23
64211;BME280;50528;48.514;14.394;2023-04-21T01:08:16;93550.73;;;5.93;78.33
64211;BME280;50528;48.514;14.394;2023-04-21T01:08:51;93554.67;;;5.92;78.30
64211;BME280;50528;48.514;14.394;2023-04-21T01:09:26;93554.58;;;6.00;78.23
64211;BME280;50528;48.514;14.394;2023-04-21T01:09:59;93554.95;;;5.95;78.08
64211;BME280;50528;48.514;14.394;2023-04-21T01:10:34;93552.00;;;5.88;78.20
64211;BME280;50528;48.514;14.394;2023-04-21T01:11:12;93553.80;;;5.84;78.39
64211;BME280;50528;48.514;14.394;2023-04-21T01:12:12;93557.30;;;5.84;78.32
64211;BME280;50528;48.514;14.394;2023-04-21T01:12:47;93550.91;;;5.76;78.29
64211;BME280;50528;48.514;14.394;2023-04-21T01:13:21;93555.50;;;5.81;78.13
64211;BME280;50528;48.514;14.394;2023-04-21T01:13:56;93556.81;;;5.68;78.26
64211;BME280;50528;48.514;14.394;2023-04-21T01:14:30;93551.07;;;5.61;78.54
64211;BME280;50528;48.514;14.394;2023-04-21T01:15:04;93554.98;;;5.62;78.67
64211;BME280;50528;48.514;14.394;2023-04-21T01:15:38;93553.14;;;5.61;78.70
64211;BME280;50528;48.514;14.394;2023-04-21T01:16:17;93552.27;;;5.60;78.73
64211;BME280;50528;48.514;14.394;2023-04-21T01:16:51;93546.85;;;5.55;78.72
64211;BME280;50528;48.514;14.394;2023-04-21T01:17:24;93550.67;;;5.58;78.71
64211;BME280;50528;48.514;14.394;2023-04-21T01:17:59;93552.37;;;5.57;78.74
64211;BME280;50528;48.514;14.394;2023-04-21T01:18:34;93553.70;;;5.56;78.67
64211;BME280;50528;48.514;14.394;2023-04-21T01:19:08;93553.70;;;5.56;78.68
64211;BME280;50528;48.514;14.394;2023-04-21T01:19:45;93550.06;;;5.55;78.68
64211;BME280;50528;48.514;14.394;2023-04-21T01:20:18;93552.96;;;5.54;78.64
64211;BME280;50528;48.514;14.394;2023-04-21T01:20:52;93551.86;;;5.53;78.64
64211;BME280;50528;48.514;14.394;2023-04-21T01:21:26;93552.20;;;5.52;78.63
64211;BME280;50528;48.514;14.394;2023-04-21T01:22:05;93551.85;;;5.51;78.64
64211;BME280;50528;48.514;14.394;2023-04-21T01:22:41;93551.02;;;5.50;78.66
64211;BME280;50528;48.514;14.394;2023-04-21T01:23:20;93546.46;;;5.49;78.74
64211;BME280;50528;48.514;14.394;2023-04-21T01:23:56;93546.42;;;5.49;78.73
64211;BME280;50528;48.514;14.394;2023-04-21T01:24:46;93549.08;;;5.49;78.75
64211;BME280;50528;48.514;14.394;2023-04-21T01:25:20;93548.40;;;5.46;78.72
64211;BME280;50528;48.514;14.394;2023-04-21T01:25:57;93545.83;;;5.46;78.75
64211;BME280;50528;48.514;14.394;2023-04-21T01:26:33;93547.23;;;5.46;78.75
64211;BME280;50528;48.514;14.394;2023-04-21T01:27:12;93542.95;;;5.46;78.80
64211;BME280;50528;48.514;14.394;2023-04-21T01:27:46;93545.88;;;5.46;78.79
64211;BME280;50528;48.514;14.394;2023-04-21T01:28:24;93547.25;;;5.45;78.81
64211;BME280;50528;48.514;14.394;2023-04-21T01:28:58;93544.66;;;5.43;78.73
64211;BME280;50528;48.514;14.394;2023-04-21T01:29:32;93544.45;;;5.43;78.74
64211;BME280;50528;48.514;14.394;2023-04-21T01:30:07;93546.30;;;5.43;78.69
64211;BME280;50528;48.514;14.394;2023-04-21T01:30:42;93547.09;;;5.42;78.73
64211;BME280;50528;48.514;14.394;2023-04-21T01:31:15;93544.59;;;5.42;78.82
64211;BME280;50528;48.514;14.394;2023-04-21T01:31:49;93542.16;;;5.39;78.84
64211;BME280;50528;48.514;14.394;2023-04-21T01:32:27;93546.63;;;5.43;78.86
64211;BME280;50528;48.514;14.394;2023-04-21T01:33:04;93546.48;;;5.43;78.94
64211;BME280;50528;48.514;14.394;2023-04-21T01:33:37;93545.73;;;5.42;78.96
64211;BME280;50528;48.514;14.394;2023-04-21T01:34:11;93543.70;;;5.43;79.00
64211;BME280;50528;48.514;14.394;2023-04-21T01:34:45;93543.45;;;5.43;79.01
64211;BME280;50528;48.514;14.394;2023-04-21T01:35:19;93544.18;;;5.43;78.96
64211;BME280;50528;48.514;14.394;2023-04-21T01:35:53;93548.98;;;5.43;79.07
64211;BME280;50528;48.514;14.394;2023-04-21T01:36:27;93546.61;;;5.42;79.06
64211;BME280;50528;48.514;14.394;2023-04-21T01:37:01;93545.44;;;5.41;79.08
64211;BME280;50528;48.514;14.394;2023-04-21T01:37:34;93543.65;;;5.38;79.05
64211;BME280;50528;48.514;14.394;2023-04-21T01:38:08;93545.29;;;5.39;79.12
64211;BME280;50528;48.514;14.394;2023-04-21T01:38:41;93544.60;;;5.39;79.13
64211;BME280;50528;48.514;14.394;2023-04-21T01:39:15;93541.27;;;5.36;79.12
64211;BME280;50528;48.514;14.394;2023-04-21T01:39:52;93542.49;;;5.38;79.28
64211;BME280;50528;48.514;14.394;2023-04-21T01:40:26;93543.20;;;5.39;79.17
64211;BME280;50528;48.514;14.394;2023-04-21T01:41:00;93541.55;;;5.34;79.22
64211;BME280;50528;48.514;14.394;2023-04-21T01:41:33;93541.73;;;5.32;79.26
64211;BME280;50528;48.514;14.394;2023-04-21T01:42:07;93542.70;;;5.31;79.28
64211;BME280;50528;48.514;14.394;2023-04-21T01:42:42;93537.55;;;5.30;79.16
64211;BME280;50528;48.514;14.394;2023-04-21T01:43:21;93542.33;;;5.27;79.17
64211;BME280;50528;48.514;14.394;2023-04-21T01:43:55;93541.90;;;5.25;79.18
64211;BME280;50528;48.514;14.394;2023-04-21T01:44:29;93542.03;;;5.24;79.21
64211;BME280;50528;48.514;14.394;2023-04-21T01:45:04;93542.66;;;5.23;79.19
64211;BME280;50528;48.514;14.394;2023-04-21T01:45:38;93544.27;;;5.23;79.22
64211;BME280;50528;48.514;14.394;2023-04-21T01:46:12;93547.40;;;5.25;79.06
64211;BME280;50528;48.514;14.394;2023-04-21T01:46:45;93542.81;;;5.20;79.49
64211;BME280;50528;48.514;14.394;2023-04-21T01:47:19;93541.79;;;5.16;79.82
64211;BME280;50528;48.514;14.394;2023-04-21T01:47:53;93547.38;;;5.15;79.65
64211;BME280;50528;48.514;14.394;2023-04-21T01:48:27;93548.14;;;5.14;79.75
64211;BME280;50528;48.514;14.394;2023-04-21T01:49:00;93548.22;;;5.11;79.69
64211;BME280;50528;48.514;14.394;2023-04-21T01:50:42;93549.98;;;5.05;79.76
64211;BME280;50528;48.514;14.394;2023-04-21T01:51:19;93548.63;;;4.99;79.67
64211;BME280;50528;48.514;14.394;2023-04-21T01:51:55;93550.88;;;4.98;79.75
64211;BME280;50528;48.514;14.394;2023-04-21T01:52:28;93551.65;;;4.98;79.78
64211;BME280;50528;48.514;14.394;2023-04-21T01:53:02;93550.84;;;4.98;79.72
64211;BME280;50528;48.514;14.394;2023-04-21T01:53:36;93550.20;;;4.98;79.81
64211;BME280;50528;48.514;14.394;2023-04-21T01:54:11;93544.16;;;4.93;79.78
64211;BME280;50528;48.514;14.394;2023-04-21T01:54:45;93549.61;;;4.96;79.72
64211;BME280;50528;48.514;14.394;2023-04-21T01:55:19;93546.69;;;4.96;79.72
64211;BME280;50528;48.514;14.394;2023-04-21T01:55:53;93548.64;;;4.94;79.62
64211;BME280;50528;48.514;14.394;2023-04-21T01:56:27;93546.94;;;4.93;79.60
64211;BME280;50528;48.514;14.394;2023-04-21T01:57:02;93550.27;;;4.91;79.62
64211;BME280;50528;48.514;14.394;2023-04-21T01:57:38;93550.67;;;4.91;79.59
64211;BME280;50528;48.514;14.394;2023-04-21T01:58:12;93550.64;;;4.90;79.56
64211;BME280;50528;48.514;14.394;2023-04-21T01:58:46;93549.23;;;4.89;79.68
64211;BME280;50528;48.514;14.394;2023-04-21T01:59:20;93547.66;;;4.88;79.69
64211;BME280;50528;48.514;14.394;2023-04-21T01:59:54;93547.32;;;4.88;79.66
64211;BME280;50528;48.514;14.394;2023-04-21T02:00:27;93540.45;;;4.82;79.70
64211;BME280;50528;48.514;14.394;2023-04-21T02:01:02;93549.48;;;4.87;79.74
64211;BME280;50528;48.514;14.394;2023-04-21T02:01:36;93548.17;;;4.86;79.78
64211;BME280;50528;48.514;14.394;2023-04-21T02:02:09;93551.30;;;4.86;79.78
64211;BME280;50528;48.514;14.394;2023-04-21T02:02:43;93546.61;;;4.86;79.80
64211;BME280;50528;48.514;14.394;2023-04-21T02:03:18;93546.17;;;4.86;79.75
64211;BME280;50528;48.514;14.394;2023-04-21T02:03:52;93548.79;;;4.85;79.78
64211;BME280;50528;48.514;14.394;2023-04-21T02:04:26;93547.02;;;4.85;79.77
64211;BME280;50528;48.514;14.394;2023-04-21T02:05:00;93544.94;;;4.85;79.82
64211;BME280;50528;48.514;14.394;2023-04-21T02:05:34;93547.78;;;4.82;79.73
64211;BME280;50528;48.514;14.394;2023-04-21T02:06:10;93543.87;;;4.84;79.70
64211;BME280;50528;48.514;14.394;2023-04-21T02:06:45;93542.40;;;4.83;79.79
64211;BME280;50528;48.514;14.394;2023-04-21T02:07:19;93546.05;;;4.83;79.74
64211;BME280;50528;48.514;14.394;2023-04-21T02:07:52;93547.63;;;4.82;79.75
64211;BME280;50528;48.514;14.394;2023-04-21T02:08:27;93545.40;;;4.81;79.74
64211;BME280;50528;48.514;14.394;2023-04-21T02:09:01;93546.88;;;4.80;79.67
64211;BME280;50528;48.514;14.394;2023-04-21T02:09:36;93546.41;;;4.80;79.62
64211;BME280;50528;48.514;14.394;2023-04-21T02:10:10;93545.64;;;4.80;79.80
64211;BME280;50528;48.514;14.394;2023-04-21T02:10:44;93545.00;;;4.80;79.68
64211;BME280;50528;48.514;14.394;2023-04-21T02:11:18;93546.48;;;4.79;79.66
64211;BME280;50528;48.514;14.394;2023-04-21T02:11:52;93544.45;;;4.79;79.63
64211;BME280;50528;48.514;14.394;2023-04-21T02:12:27;93543.55;;;4.78;79.71
64211;BME280;50528;48.514;14.394;2023-04-21T02:13:00;93543.55;;;4.78;79.75
64211;BME280;50528;48.514;14.394;2023-04-21T02:13:34;93542.30;;;4.78;79.74
64211;BME280;50528;48.514;14.394;2023-04-21T02:14:08;93540.69;;;4.78;79.73
64211;BME280;50528;48.514;14.394;2023-04-21T02:14:42;93542.34;;;4.78;79.92
64211;BME280;50528;48.514;14.394;2023-04-21T02:15:18;93544.89;;;4.76;79.89
64211;BME280;50528;48.514;14.394;2023-04-21T02:15:52;93545.66;;;4.75;79.85
64211;BME280;50528;48.514;14.394;2023-04-21T02:16:44;93548.49;;;4.72;79.86
64211;BME280;50528;48.514;14.394;2023-04-21T02:17:18;93545.60;;;4.71;79.95
64211;BME280;50528;48.514;14.394;2023-04-21T02:17:52;93543.20;;;4.71;79.94
64211;BME280;50528;48.514;14.394;2023-04-21T02:18:26;93545.39;;;4.71;79.95
64211;BME280;50528;48.514;14.394;2023-04-21T02:19:01;93544.66;;;4.71;79.93
64211;BME280;50528;48.514;14.394;2023-04-21T02:19:35;93543.46;;;4.71;79.96
64211;BME280;50528;48.514;14.394;2023-04-21T02:20:10;93541.36;;;4.70;79.90
64211;BME280;50528;48.514;14.394;2023-04-21T02:20:44;93542.92;;;4.70;79.85
64211;BME280;50528;48.514;14.394;2023-04-21T02:21:19;93540.33;;;4.69;79.80
64211;BME280;50528;48.514;14.394;2023-04-21T02:21:56;93542.30;;;4.67;79.74
64211;BME280;50528;48.514;14.394;2023-04-21T02:22:30;93540.14;;;4.67;79.72
64211;BME280;50528;48.514;14.394;2023-04-21T02:23:08;93541.84;;;4.65;79.67
64211;BME280;50528;48.514;14.394;2023-04-21T02:23:46;93539.08;;;4.64;79.68
64211;BME280;50528;48.514;14.394;2023-04-21T02:24:19;93530.55;;;4.56;79.68
64211;BME280;50528;48.514;14.394;2023-04-21T02:24:53;93539.17;;;4.61;79.67
64211;BME280;50528;48.514;14.394;2023-04-21T02:25:27;93539.38;;;4.61;79.76
64211;BME280;50528;48.514;14.394;2023-04-21T02:26:01;93540.09;;;4.61;79.76
64211;BME280;50528;48.514;14.394;2023-04-21T02:26:37;93541.27;;;4.60;79.81
64211;BME280;50528;48.514;14.394;2023-04-21T02:27:10;93541.85;;;4.58;79.84
64211;BME280;50528;48.514;14.394;2023-04-21T02:27:44;93541.70;;;4.58;80.11
64211;BME280;50528;48.514;14.394;2023-04-21T02:28:17;93542.15;;;4.60;80.03
64211;BME280;50528;48.514;14.394;2023-04-21T02:28:52;93544.70;;;4.61;80.10
64211;BME280;50528;48.514;14.394;2023-04-21T02:29:26;93543.46;;;4.60;80.30
64211;BME280;50528;48.514;14.394;2023-04-21T02:30:00;93542.52;;;4.58;80.49
64211;BME280;50528;48.514;14.394;2023-04-21T02:30:33;93541.23;;;4.58;80.27
64211;BME280;50528;48.514;14.394;2023-04-21T02:31:07;93540.59;;;4.56;80.37
64211;BME280;50528;48.514;14.394;2023-04-21T02:31:41;93543.04;;;4.54;80.44
64211;BME280;50528;48.514;14.394;2023-04-21T02:32:31;93539.37;;;4.50;80.44
64211;BME280;50528;48.514;14.394;2023-04-21T02:33:04;93543.19;;;4.53;80.50
64211;BME280;50528;48.514;14.394;2023-04-21T02:33:38;93543.92;;;4.54;80.58
64211;BME280;50528;48.514;14.394;2023-04-21T02:34:12;93545.10;;;4.53;80.61
64211;BME280;50528;48.514;14.394;2023-04-21T02:34:45;93544.44;;;4.53;80.63
64211;BME280;50528;48.514;14.394;2023-04-21T02:35:19;93546.30;;;4.53;80.68
64211;BME280;50528;48.514;14.394;2023-04-21T02:35:52;93547.20;;;4.53;80.72
64211;BME280;50528;48.514;14.394;2023-04-21T02:36:26;93544.91;;;4.52;80.72
64211;BME280;50528;48.514;14.394;2023-04-21T02:37:02;93539.34;;;4.46;80.66
64211;BME280;50528;48.514;14.394;2023-04-21T02:37:35;93552.50;;;4.50;80.71
64211;BME280;50528;48.514;14.394;2023-04-21T02:38:08;93551.06;;;4.49;80.66
64211;BME280;50528;48.514;14.394;2023-04-21T02:38:42;93552.59;;;4.48;80.61
64211;BME280;50528;48.514;14.394;2023-04-21T02:39:16;93555.83;;;4.48;80.56
64211;BME280;50528;48.514;14.394;2023-04-21T02:39:50;93551.39;;;4.46;80.54
64211;BME280;50528;48.514;14.394;2023-04-21T02:40:23;93555.09;;;4.44;80.52
64211;BME280;50528;48.514;14.394;2023-04-21T02:40:57;93554.84;;;4.43;80.52
64211;BME280;50528;48.514;14.394;2023-04-21T02:41:30;93553.13;;;4.43;80.55
64211;BME280;50528;48.514;14.394;2023-04-21T02:42:05;93554.20;;;4.43;80.45
64211;BME280;50528;48.514;14.394;2023-04-21T02:42:39;93555.74;;;4.42;80.63
64211;BME280;50528;48.514;14.394;2023-04-21T02:43:16;93551.31;;;4.41;80.56
64211;BME280;50528;48.514;14.394;2023-04-21T02:43:49;93550.65;;;4.40;80.55
64211;BME280;50528;48.514;14.394;2023-04-21T02:44:23;93552.42;;;4.42;80.53
64211;BME280;50528;48.514;14.394;2023-04-21T02:44:56;93552.20;;;4.41;80.53
64211;BME280;50528;48.514;14.394;2023-04-21T02:45:32;93546.79;;;4.38;80.50
64211;BME280;50528;48.514;14.394;2023-04-21T02:46:06;93549.77;;;4.41;80.63
64211;BME280;50528;48.514;14.394;2023-04-21T02:46:40;93550.65;;;4.40;80.58
64211;BME280;50528;48.514;14.394;2023-04-21T02:47:15;93550.21;;;4.39;80.59
64211;BME280;50528;48.514;14.394;2023-04-21T02:47:49;93552.11;;;4.38;80.59
64211;BME280;50528;48.514;14.394;2023-04-21T02:48:22;93553.06;;;4.38;80.65
64211;BME280;50528;48.514;14.394;2023-04-21T02:48:56;93548.86;;;4.38;80.66
64211;BME280;50528;48.514;14.394;2023-04-21T02:49:29;93549.83;;;4.38;80.59
64211;BME280;50528;48.514;14.394;2023-04-21T02:50:03;93548.63;;;4.39;80.68
64211;BME280;50528;48.514;14.394;2023-04-21T02:50:37;93542.79;;;4.41;80.98
64211;BME280;50528;48.514;14.394;2023-04-21T02:51:13;93541.20;;;4.43;80.92
64211;BME280;50528;48.514;14.394;2023-04-21T02:51:47;93544.66;;;4.40;80.88
64211;BME280;50528;48.514;14.394;2023-04-21T02:52:21;93547.18;;;4.37;80.92
64211;BME280;50528;48.514;14.394;2023-04-21T02:52:54;93546.18;;;4.37;81.01
64211;BME280;50528;48.514;14.394;2023-04-21T02:53:28;93544.63;;;4.37;81.11
64211;BME280;50528;48.514;14.394;2023-04-21T02:54:01;93548.54;;;4.36;81.19
64211;BME280;50528;48.514;14.394;2023-04-21T02:54:35;93547.15;;;4.36;81.20
64211;BME280;50528;48.514;14.394;2023-04-21T02:55:08;93548.27;;;4.37;81.27
64211;BME280;50528;48.514;14.394;2023-04-21T02:55:42;93544.34;;;4.38;81.25
64211;BME280;50528;48.514;14.394;2023-04-21T02:56:15;93544.79;;;4.39;81.45
64211;BME280;50528;48.514;14.394;2023-04-21T02:56:50;93548.13;;;4.39;81.35
64211;BME280;50528;48.514;14.394;2023-04-21T02:57:23;93545.61;;;4.40;81.40
64211;BME280;50528;48.514;14.394;2023-04-21T02:57:58;93549.80;;;4.41;81.40
64211;BME280;50528;48.514;14.394;2023-04-21T02:58:31;93545.61;;;4.43;81.38
64211;BME280;50528;48.514;14.394;2023-04-21T02:59:04;93540.78;;;4.37;81.37
64211;BME280;50528;48.514;14.394;2023-04-21T02:59:38;93544.92;;;4.42;81.35
64211;BME280;50528;48.514;14.394;2023-04-21T03:00:12;93548.98;;;4.42;81.34
64211;BME280;50528;48.514;14.394;2023-04-21T03:00:46;93551.38;;;4.42;81.36
64211;BME280;50528;48.514;14.394;2023-04-21T03:01:19;93552.48;;;4.43;81.36
64211;BME280;50528;48.514;14.394;2023-04-21T03:01:53;93548.69;;;4.43;81.36
64211;BME280;50528;48.514;14.394;2023-04-21T03:02:26;93548.77;;;4.43;81.37
64211;BME280;50528;48.514;14.394;2023-04-21T03:03:00;93549.54;;;4.42;81.28
64211;BME280;50528;48.514;14.394;2023-04-21T03:03:34;93548.81;;;4.42;81.27
64211;BME280;50528;48.514;14.394;2023-04-21T03:04:08;93551.65;;;4.43;81.25
64211;BME280;50528;48.514;14.394;2023-04-21T03:04:43;93550.13;;;4.42;81.21